Hauptseite
METAR-TAF:

METAR-TAF

Flughäfen :

Flughafen Kapstadt

Kapstadt, Südafrika

Breite: 33-59S, Länge: 018-36E, Höhe: 42 m

Beobachtung

Neuester Wetterbericht von vor 52 Minuten, um 08:00 UTC
Wind 9 kt aus Süd
Temperatur 17°C
Luftfeuchtigkeit 55%
Luftdruck 1022 hPa
Sichtweite 10 km oder mehr
keine Wolken unter 1500 m und keine Kumulonimbus oder Gewitterwolken

METAR: FACT 160800Z 18009KT CAVOK 17/08 Q1022 NOSIG

Zeit: 10:52 (08:52 UTC)

Prognose

Neuester Wetterbericht von vor 4 Stunden und 52 Minuten, um 04:00 UTC
Gültige Prognose vom 16 um 06 UTC bis 17 um 12 UTC
Wind 5 kt aus Süd/Südwest
Sichtweite 10 km oder mehr
Leicht bewölkt in der Höhe von 3000 ft
Übergehend zu
vom 16 um 07 UTC bis 16 um 09 UTC
Wind 16 kt aus Süd

TAF: FACT 160400Z 1606/1712 20005KT 9999 FEW030 BECMG 1607/1609 17016KT TX25/1712Z TN12/1704Z

Wetterbeobachtungen und Prognosen von mehr als 4000 Flughäfen (METAR und TAF Bericht).

Die verfügbaren Stationen werden durch gelbe und rote Markierungen auf der Karte dargestellt.

Führen Sie die Maus auf sie, um den Namen der Station zu sehen.

Darauf klicken, um die Beobachtung von Wetterbeobachtungen und Prognosen zu sehen.

Um die Karte zu ändern : klicken Sie auf den grünen Tasten mit einem schwarzen Kreuz Zum Vergrößern, auf den grünen Button mit einem Gedankenstrich zu verkleinern, oder auf die grünen Pfeile für benachbarte Karten.


METAR-TAF: